sensor_id;sensor_type;location;lat;lon;timestamp;P1;durP1;ratioP1;P2;durP2;ratioP2
77953;SDS011;67151;52.544;6.034;2023-06-22T00:00:13;6.2;;;2.8;;
77953;SDS011;67151;52.544;6.034;2023-06-22T00:00:28;6.2;;;2.9;;
77953;SDS011;67151;52.544;6.034;2023-06-22T00:00:45;6;;;3.1;;
77953;SDS011;67151;52.544;6.034;2023-06-22T00:00:58;6.4;;;3.2;;
77953;SDS011;67151;52.544;6.034;2023-06-22T00:01:13;5.9;;;3;;
77953;SDS011;67151;52.544;6.034;2023-06-22T00:01:28;6.5;;;3.2;;
77953;SDS011;67151;52.544;6.034;2023-06-22T00:01:43;6.9;;;3.2;;
77953;SDS011;67151;52.544;6.034;2023-06-22T00:02:01;5.8;;;2.9;;
77953;SDS011;67151;52.544;6.034;2023-06-22T00:02:19;5.2;;;3;;
77953;SDS011;67151;52.544;6.034;2023-06-22T00:02:28;5.9;;;3;;
77953;SDS011;67151;52.544;6.034;2023-06-22T00:02:46;7.3;;;3.2;;
77953;SDS011;67151;52.544;6.034;2023-06-22T00:03:00;7.3;;;3.4;;
77953;SDS011;67151;52.544;6.034;2023-06-22T00:03:13;6.6;;;3.4;;
77953;SDS011;67151;52.544;6.034;2023-06-22T00:03:28;6.4;;;3.2;;
77953;SDS011;67151;52.544;6.034;2023-06-22T00:03:43;6.4;;;3.1;;
77953;SDS011;67151;52.544;6.034;2023-06-22T00:03:58;7.2;;;3.4;;
77953;SDS011;67151;52.544;6.034;2023-06-22T00:04:13;6.5;;;3.1;;
77953;SDS011;67151;52.544;6.034;2023-06-22T00:04:28;5.7;;;2.8;;
77953;SDS011;67151;52.544;6.034;2023-06-22T00:04:43;5.9;;;3.1;;
77953;SDS011;67151;52.544;6.034;2023-06-22T00:04:59;6.5;;;3.3;;
77953;SDS011;67151;52.544;6.034;2023-06-22T00:05:13;6;;;3.2;;
77953;SDS011;67151;52.544;6.034;2023-06-22T00:05:28;5.7;;;2.9;;
77953;SDS011;67151;52.544;6.034;2023-06-22T00:05:43;6.4;;;3.3;;
77953;SDS011;67151;52.544;6.034;2023-06-22T00:05:59;7;;;3.5;;
77953;SDS011;67151;52.544;6.034;2023-06-22T00:06:13;5.8;;;3;;
77953;SDS011;67151;52.544;6.034;2023-06-22T00:06:28;4.8;;;2.6;;
77953;SDS011;67151;52.544;6.034;2023-06-22T00:06:43;5.3;;;2.8;;
77953;SDS011;67151;52.544;6.034;2023-06-22T00:06:58;5.5;;;3;;
77953;SDS011;67151;52.544;6.034;2023-06-22T00:07:13;5.6;;;3.2;;
77953;SDS011;67151;52.544;6.034;2023-06-22T00:07:28;5.6;;;3.1;;
77953;SDS011;67151;52.544;6.034;2023-06-22T00:07:43;6.5;;;3.2;;
77953;SDS011;67151;52.544;6.034;2023-06-22T00:08:01;6.6;;;3.1;;
77953;SDS011;67151;52.544;6.034;2023-06-22T00:08:13;5.4;;;3;;
77953;SDS011;67151;52.544;6.034;2023-06-22T00:08:28;5.9;;;3;;
77953;SDS011;67151;52.544;6.034;2023-06-22T00:08:43;7.1;;;2.9;;
77953;SDS011;67151;52.544;6.034;2023-06-22T00:08:58;7.4;;;3;;
77953;SDS011;67151;52.544;6.034;2023-06-22T00:09:13;7.2;;;3.3;;
77953;SDS011;67151;52.544;6.034;2023-06-22T00:09:28;6.9;;;3.3;;
77953;SDS011;67151;52.544;6.034;2023-06-22T00:09:43;6.5;;;3.1;;
77953;SDS011;67151;52.544;6.034;2023-06-22T00:09:58;7.2;;;3.4;;
77953;SDS011;67151;52.544;6.034;2023-06-22T00:10:13;6.8;;;3.3;;
77953;SDS011;67151;52.544;6.034;2023-06-22T00:10:28;5.8;;;2.9;;
77953;SDS011;67151;52.544;6.034;2023-06-22T00:10:43;6;;;3.2;;
77953;SDS011;67151;52.544;6.034;2023-06-22T00:10:58;5.2;;;2.8;;
77953;SDS011;67151;52.544;6.034;2023-06-22T00:11:13;5.8;;;2.6;;
77953;SDS011;67151;52.544;6.034;2023-06-22T00:11:28;7;;;2.7;;
77953;SDS011;67151;52.544;6.034;2023-06-22T00:11:43;7.3;;;3.2;;
77953;SDS011;67151;52.544;6.034;2023-06-22T00:11:58;7.1;;;3.4;;
77953;SDS011;67151;52.544;6.034;2023-06-22T00:12:13;6.5;;;3.2;;
77953;SDS011;67151;52.544;6.034;2023-06-22T00:12:28;5.9;;;3.2;;
77953;SDS011;67151;52.544;6.034;2023-06-22T00:12:43;5.3;;;3;;
77953;SDS011;67151;52.544;6.034;2023-06-22T00:12:58;5.6;;;2.9;;
77953;SDS011;67151;52.544;6.034;2023-06-22T00:13:13;6.6;;;3;;
77953;SDS011;67151;52.544;6.034;2023-06-22T00:13:28;5.9;;;3;;
77953;SDS011;67151;52.544;6.034;2023-06-22T00:13:43;4.7;;;3;;
77953;SDS011;67151;52.544;6.034;2023-06-22T00:13:58;5.8;;;3.1;;
77953;SDS011;67151;52.544;6.034;2023-06-22T00:14:13;6.5;;;3.1;;
77953;SDS011;67151;52.544;6.034;2023-06-22T00:14:28;5.9;;;3.2;;
77953;SDS011;67151;52.544;6.034;2023-06-22T00:14:43;6.6;;;3.2;;
77953;SDS011;67151;52.544;6.034;2023-06-22T00:14:58;6.7;;;3;;
77953;SDS011;67151;52.544;6.034;2023-06-22T00:15:13;5.4;;;2.8;;
77953;SDS011;67151;52.544;6.034;2023-06-22T00:15:28;5.5;;;2.8;;
77953;SDS011;67151;52.544;6.034;2023-06-22T00:15:43;6.2;;;2.8;;
77953;SDS011;67151;52.544;6.034;2023-06-22T00:15:58;6.8;;;3.1;;
77953;SDS011;67151;52.544;6.034;2023-06-22T00:16:13;6.8;;;3.1;;
77953;SDS011;67151;52.544;6.034;2023-06-22T00:16:28;6.1;;;3;;
77953;SDS011;67151;52.544;6.034;2023-06-22T00:16:43;6;;;3.2;;
77953;SDS011;67151;52.544;6.034;2023-06-22T00:16:58;6.1;;;3.3;;
77953;SDS011;67151;52.544;6.034;2023-06-22T00:17:13;6.1;;;3.1;;
77953;SDS011;67151;52.544;6.034;2023-06-22T00:17:28;6;;;3;;
77953;SDS011;67151;52.544;6.034;2023-06-22T00:17:43;6.3;;;3.1;;
77953;SDS011;67151;52.544;6.034;2023-06-22T00:17:58;6.3;;;2.8;;
77953;SDS011;67151;52.544;6.034;2023-06-22T00:18:13;6.1;;;2.7;;
77953;SDS011;67151;52.544;6.034;2023-06-22T00:18:28;6.2;;;3;;
77953;SDS011;67151;52.544;6.034;2023-06-22T00:18:43;5.8;;;3.1;;
77953;SDS011;67151;52.544;6.034;2023-06-22T00:18:58;5.6;;;3;;
77953;SDS011;67151;52.544;6.034;2023-06-22T00:19:13;5.9;;;2.9;;
77953;SDS011;67151;52.544;6.034;2023-06-22T00:19:28;5.7;;;2.8;;
77953;SDS011;67151;52.544;6.034;2023-06-22T00:19:43;5.9;;;2.9;;
77953;SDS011;67151;52.544;6.034;2023-06-22T00:19:58;6;;;3.1;;
77953;SDS011;67151;52.544;6.034;2023-06-22T00:20:13;7.4;;;3.3;;
77953;SDS011;67151;52.544;6.034;2023-06-22T00:20:28;7.8;;;3.3;;
77953;SDS011;67151;52.544;6.034;2023-06-22T00:20:43;6.3;;;3.2;;
77953;SDS011;67151;52.544;6.034;2023-06-22T00:20:59;5.9;;;3;;
77953;SDS011;67151;52.544;6.034;2023-06-22T00:21:13;5.8;;;2.8;;
77953;SDS011;67151;52.544;6.034;2023-06-22T00:21:28;6.2;;;2.9;;
77953;SDS011;67151;52.544;6.034;2023-06-22T00:21:43;7.3;;;3.2;;
77953;SDS011;67151;52.544;6.034;2023-06-22T00:21:58;6.8;;;3.1;;
77953;SDS011;67151;52.544;6.034;2023-06-22T00:22:13;5.4;;;2.6;;
77953;SDS011;67151;52.544;6.034;2023-06-22T00:22:28;5.3;;;2.9;;
77953;SDS011;67151;52.544;6.034;2023-06-22T00:22:43;5.4;;;3;;
77953;SDS011;67151;52.544;6.034;2023-06-22T00:22:58;6.4;;;2.8;;
77953;SDS011;67151;52.544;6.034;2023-06-22T00:23:13;7;;;2.9;;
77953;SDS011;67151;52.544;6.034;2023-06-22T00:23:28;6.7;;;3;;
77953;SDS011;67151;52.544;6.034;2023-06-22T00:23:43;6.6;;;3;;
77953;SDS011;67151;52.544;6.034;2023-06-22T00:23:58;5.1;;;2.8;;
77953;SDS011;67151;52.544;6.034;2023-06-22T00:24:13;5.1;;;2.8;;
77953;SDS011;67151;52.544;6.034;2023-06-22T00:24:28;5.2;;;2.7;;
77953;SDS011;67151;52.544;6.034;2023-06-22T00:24:43;5.4;;;2.9;;
77953;SDS011;67151;52.544;6.034;2023-06-22T00:24:58;6.1;;;3.3;;
77953;SDS011;67151;52.544;6.034;2023-06-22T00:25:13;5.6;;;2.9;;
77953;SDS011;67151;52.544;6.034;2023-06-22T00:25:28;4.5;;;2.5;;
77953;SDS011;67151;52.544;6.034;2023-06-22T00:25:43;5.3;;;3;;
77953;SDS011;67151;52.544;6.034;2023-06-22T00:25:58;6;;;3;;
77953;SDS011;67151;52.544;6.034;2023-06-22T00:26:13;6.2;;;2.8;;
77953;SDS011;67151;52.544;6.034;2023-06-22T00:26:28;6.2;;;3;;
77953;SDS011;67151;52.544;6.034;2023-06-22T00:26:43;5.2;;;2.8;;
77953;SDS011;67151;52.544;6.034;2023-06-22T00:26:58;4.9;;;2.7;;
77953;SDS011;67151;52.544;6.034;2023-06-22T00:27:13;4.9;;;3.2;;
77953;SDS011;67151;52.544;6.034;2023-06-22T00:27:28;5.4;;;3.3;;
77953;SDS011;67151;52.544;6.034;2023-06-22T00:27:43;5.8;;;3;;
77953;SDS011;67151;52.544;6.034;2023-06-22T00:27:58;4.8;;;2.8;;
77953;SDS011;67151;52.544;6.034;2023-06-22T00:28:13;5.8;;;2.8;;
77953;SDS011;67151;52.544;6.034;2023-06-22T00:28:28;6.6;;;3.1;;
77953;SDS011;67151;52.544;6.034;2023-06-22T00:28:43;5.9;;;3.3;;
77953;SDS011;67151;52.544;6.034;2023-06-22T00:28:58;6.3;;;3.4;;
77953;SDS011;67151;52.544;6.034;2023-06-22T00:29:13;5.4;;;3.1;;
77953;SDS011;67151;52.544;6.034;2023-06-22T00:29:28;5.3;;;2.7;;
77953;SDS011;67151;52.544;6.034;2023-06-22T00:29:43;6.1;;;3.1;;
77953;SDS011;67151;52.544;6.034;2023-06-22T00:29:59;6.7;;;3.2;;
77953;SDS011;67151;52.544;6.034;2023-06-22T00:30:13;5.9;;;2.9;;
77953;SDS011;67151;52.544;6.034;2023-06-22T00:30:28;4.9;;;2.7;;
77953;SDS011;67151;52.544;6.034;2023-06-22T00:30:43;4.7;;;2.8;;
77953;SDS011;67151;52.544;6.034;2023-06-22T00:30:58;4.3;;;2.8;;
77953;SDS011;67151;52.544;6.034;2023-06-22T00:31:13;4.6;;;2.9;;
77953;SDS011;67151;52.544;6.034;2023-06-22T00:31:28;5.7;;;3.1;;
77953;SDS011;67151;52.544;6.034;2023-06-22T00:31:43;5.5;;;3;;
77953;SDS011;67151;52.544;6.034;2023-06-22T00:31:58;4.8;;;2.9;;
77953;SDS011;67151;52.544;6.034;2023-06-22T00:32:13;5.1;;;3;;
77953;SDS011;67151;52.544;6.034;2023-06-22T00:32:28;5.1;;;2.9;;
77953;SDS011;67151;52.544;6.034;2023-06-22T00:32:43;5.1;;;2.8;;
77953;SDS011;67151;52.544;6.034;2023-06-22T00:32:58;5.9;;;2.8;;
77953;SDS011;67151;52.544;6.034;2023-06-22T00:33:13;6.2;;;2.8;;
77953;SDS011;67151;52.544;6.034;2023-06-22T00:33:28;5.2;;;2.7;;
77953;SDS011;67151;52.544;6.034;2023-06-22T00:33:43;5.5;;;3;;
77953;SDS011;67151;52.544;6.034;2023-06-22T00:33:58;5.6;;;3;;
77953;SDS011;67151;52.544;6.034;2023-06-22T00:34:13;4.6;;;2.6;;
77953;SDS011;67151;52.544;6.034;2023-06-22T00:34:28;4.7;;;2.7;;
77953;SDS011;67151;52.544;6.034;2023-06-22T00:34:43;5.1;;;2.8;;
77953;SDS011;67151;52.544;6.034;2023-06-22T00:34:58;5.2;;;2.7;;
77953;SDS011;67151;52.544;6.034;2023-06-22T00:35:13;5.4;;;2.9;;
77953;SDS011;67151;52.544;6.034;2023-06-22T00:35:28;5.5;;;2.9;;
77953;SDS011;67151;52.544;6.034;2023-06-22T00:35:43;5.2;;;2.9;;
77953;SDS011;67151;52.544;6.034;2023-06-22T00:35:58;5.6;;;3.2;;
77953;SDS011;67151;52.544;6.034;2023-06-22T00:36:13;5.5;;;3.2;;
77953;SDS011;67151;52.544;6.034;2023-06-22T00:36:28;4.6;;;2.7;;
77953;SDS011;67151;52.544;6.034;2023-06-22T00:36:43;4.8;;;2.8;;
77953;SDS011;67151;52.544;6.034;2023-06-22T00:36:58;5.4;;;3;;
77953;SDS011;67151;52.544;6.034;2023-06-22T00:37:13;6.1;;;3.1;;
77953;SDS011;67151;52.544;6.034;2023-06-22T00:37:28;5.5;;;3.1;;
77953;SDS011;67151;52.544;6.034;2023-06-22T00:37:43;4.1;;;2.6;;
77953;SDS011;67151;52.544;6.034;2023-06-22T00:37:58;4;;;2.6;;
77953;SDS011;67151;52.544;6.034;2023-06-22T00:38:13;4.5;;;2.8;;
77953;SDS011;67151;52.544;6.034;2023-06-22T00:38:28;5.3;;;3;;
77953;SDS011;67151;52.544;6.034;2023-06-22T00:38:43;6.5;;;2.9;;
77953;SDS011;67151;52.544;6.034;2023-06-22T00:38:58;5.7;;;2.7;;
77953;SDS011;67151;52.544;6.034;2023-06-22T00:39:13;4.8;;;2.7;;
77953;SDS011;67151;52.544;6.034;2023-06-22T00:39:28;5.2;;;3.1;;
77953;SDS011;67151;52.544;6.034;2023-06-22T00:39:43;5.7;;;3.4;;
77953;SDS011;67151;52.544;6.034;2023-06-22T00:39:58;5.9;;;3;;
77953;SDS011;67151;52.544;6.034;2023-06-22T00:40:13;5.6;;;2.7;;
77953;SDS011;67151;52.544;6.034;2023-06-22T00:40:28;5.3;;;2.7;;
77953;SDS011;67151;52.544;6.034;2023-06-22T00:40:43;5.4;;;2.8;;
77953;SDS011;67151;52.544;6.034;2023-06-22T00:40:58;5.8;;;2.9;;
77953;SDS011;67151;52.544;6.034;2023-06-22T00:41:13;6;;;2.9;;
77953;SDS011;67151;52.544;6.034;2023-06-22T00:41:28;5.9;;;3;;
77953;SDS011;67151;52.544;6.034;2023-06-22T00:41:43;5.4;;;2.8;;
77953;SDS011;67151;52.544;6.034;2023-06-22T00:41:58;5.3;;;2.9;;
77953;SDS011;67151;52.544;6.034;2023-06-22T00:42:13;5.6;;;3;;
77953;SDS011;67151;52.544;6.034;2023-06-22T00:42:28;5.6;;;2.7;;
77953;SDS011;67151;52.544;6.034;2023-06-22T00:42:43;5.2;;;2.9;;
77953;SDS011;67151;52.544;6.034;2023-06-22T00:42:58;4.8;;;3.1;;
77953;SDS011;67151;52.544;6.034;2023-06-22T00:43:13;5;;;3;;
77953;SDS011;67151;52.544;6.034;2023-06-22T00:43:28;5.2;;;3.1;;
77953;SDS011;67151;52.544;6.034;2023-06-22T00:43:43;5.4;;;3;;
77953;SDS011;67151;52.544;6.034;2023-06-22T00:43:58;5.3;;;3;;
77953;SDS011;67151;52.544;6.034;2023-06-22T00:44:13;4.9;;;3;;
77953;SDS011;67151;52.544;6.034;2023-06-22T00:44:28;4.9;;;3;;
77953;SDS011;67151;52.544;6.034;2023-06-22T00:44:43;6.4;;;3.3;;
77953;SDS011;67151;52.544;6.034;2023-06-22T00:44:58;6.2;;;3.2;;
77953;SDS011;67151;52.544;6.034;2023-06-22T00:45:13;4.7;;;3;;
77953;SDS011;67151;52.544;6.034;2023-06-22T00:45:28;4.6;;;3;;
77953;SDS011;67151;52.544;6.034;2023-06-22T00:45:43;4.7;;;2.8;;
77953;SDS011;67151;52.544;6.034;2023-06-22T00:45:58;5;;;2.7;;
77953;SDS011;67151;52.544;6.034;2023-06-22T00:46:13;5.3;;;2.8;;
77953;SDS011;67151;52.544;6.034;2023-06-22T00:46:28;5.2;;;2.8;;
77953;SDS011;67151;52.544;6.034;2023-06-22T00:46:43;5.6;;;2.9;;
77953;SDS011;67151;52.544;6.034;2023-06-22T00:46:58;6.1;;;3;;
77953;SDS011;67151;52.544;6.034;2023-06-22T00:47:13;6;;;3;;
77953;SDS011;67151;52.544;6.034;2023-06-22T00:47:28;5.9;;;3;;
77953;SDS011;67151;52.544;6.034;2023-06-22T00:47:43;6;;;3.1;;
77953;SDS011;67151;52.544;6.034;2023-06-22T00:47:58;6;;;3.2;;
77953;SDS011;67151;52.544;6.034;2023-06-22T00:48:13;6;;;3.3;;
77953;SDS011;67151;52.544;6.034;2023-06-22T00:48:28;5.9;;;3.2;;
77953;SDS011;67151;52.544;6.034;2023-06-22T00:48:43;5.8;;;3.1;;
77953;SDS011;67151;52.544;6.034;2023-06-22T00:48:58;6.9;;;3.4;;
77953;SDS011;67151;52.544;6.034;2023-06-22T00:49:13;6.7;;;3.3;;
77953;SDS011;67151;52.544;6.034;2023-06-22T00:49:28;4.8;;;3;;
77953;SDS011;67151;52.544;6.034;2023-06-22T00:49:43;5.1;;;2.8;;
77953;SDS011;67151;52.544;6.034;2023-06-22T00:49:58;5.4;;;2.9;;
77953;SDS011;67151;52.544;6.034;2023-06-22T00:50:14;4.7;;;3;;
77953;SDS011;67151;52.544;6.034;2023-06-22T00:50:29;4.9;;;2.8;;
77953;SDS011;67151;52.544;6.034;2023-06-22T00:50:43;5.2;;;2.8;;
77953;SDS011;67151;52.544;6.034;2023-06-22T00:50:58;5.3;;;3;;
77953;SDS011;67151;52.544;6.034;2023-06-22T00:51:13;5.3;;;3;;
77953;SDS011;67151;52.544;6.034;2023-06-22T00:51:28;5.9;;;2.9;;
77953;SDS011;67151;52.544;6.034;2023-06-22T00:51:43;5.9;;;2.8;;
77953;SDS011;67151;52.544;6.034;2023-06-22T00:51:58;5.1;;;2.9;;
77953;SDS011;67151;52.544;6.034;2023-06-22T00:52:13;4.9;;;2.9;;
77953;SDS011;67151;52.544;6.034;2023-06-22T00:52:28;6.1;;;3.2;;
77953;SDS011;67151;52.544;6.034;2023-06-22T00:52:43;6;;;3.3;;
77953;SDS011;67151;52.544;6.034;2023-06-22T00:52:58;5.1;;;3.1;;
77953;SDS011;67151;52.544;6.034;2023-06-22T00:53:13;5.2;;;2.8;;
77953;SDS011;67151;52.544;6.034;2023-06-22T00:53:28;5.7;;;2.8;;
77953;SDS011;67151;52.544;6.034;2023-06-22T00:53:43;5.3;;;2.9;;
77953;SDS011;67151;52.544;6.034;2023-06-22T00:53:58;5.2;;;3;;
77953;SDS011;67151;52.544;6.034;2023-06-22T00:54:13;5.9;;;3;;
77953;SDS011;67151;52.544;6.034;2023-06-22T00:54:28;5.7;;;2.8;;
77953;SDS011;67151;52.544;6.034;2023-06-22T00:54:43;5.1;;;2.6;;
77953;SDS011;67151;52.544;6.034;2023-06-22T00:54:58;4.9;;;2.7;;
77953;SDS011;67151;52.544;6.034;2023-06-22T00:55:13;5;;;2.9;;
77953;SDS011;67151;52.544;6.034;2023-06-22T00:55:29;4.8;;;3;;
77953;SDS011;67151;52.544;6.034;2023-06-22T00:55:44;4.8;;;2.9;;
77953;SDS011;67151;52.544;6.034;2023-06-22T00:55:58;4.8;;;2.6;;
77953;SDS011;67151;52.544;6.034;2023-06-22T00:56:13;5.3;;;2.7;;
77953;SDS011;67151;52.544;6.034;2023-06-22T00:56:28;4.9;;;2.9;;
77953;SDS011;67151;52.544;6.034;2023-06-22T00:56:43;5.1;;;2.8;;
77953;SDS011;67151;52.544;6.034;2023-06-22T00:56:58;6.8;;;2.8;;
77953;SDS011;67151;52.544;6.034;2023-06-22T00:57:13;6.1;;;2.6;;
77953;SDS011;67151;52.544;6.034;2023-06-22T00:57:28;5.1;;;2.5;;
77953;SDS011;67151;52.544;6.034;2023-06-22T00:57:43;4.6;;;2.6;;
77953;SDS011;67151;52.544;6.034;2023-06-22T00:57:58;4.2;;;2.7;;
77953;SDS011;67151;52.544;6.034;2023-06-22T00:58:13;4.8;;;2.8;;
77953;SDS011;67151;52.544;6.034;2023-06-22T00:58:28;4.9;;;2.7;;
77953;SDS011;67151;52.544;6.034;2023-06-22T00:58:43;5.5;;;2.6;;
77953;SDS011;67151;52.544;6.034;2023-06-22T00:58:58;6.1;;;2.7;;
77953;SDS011;67151;52.544;6.034;2023-06-22T00:59:13;4.9;;;2.8;;
77953;SDS011;67151;52.544;6.034;2023-06-22T00:59:28;4.3;;;2.7;;
77953;SDS011;67151;52.544;6.034;2023-06-22T00:59:43;4.7;;;2.9;;
77953;SDS011;67151;52.544;6.034;2023-06-22T00:59:58;5.1;;;2.8;;
77953;SDS011;67151;52.544;6.034;2023-06-22T01:00:13;5.9;;;2.8;;
77953;SDS011;67151;52.544;6.034;2023-06-22T01:00:28;5.2;;;2.8;;
77953;SDS011;67151;52.544;6.034;2023-06-22T01:00:43;3.9;;;2.6;;
77953;SDS011;67151;52.544;6.034;2023-06-22T01:00:58;4.1;;;2.8;;
77953;SDS011;67151;52.544;6.034;2023-06-22T01:01:13;4.1;;;2.8;;
77953;SDS011;67151;52.544;6.034;2023-06-22T01:01:28;4.1;;;2.8;;
77953;SDS011;67151;52.544;6.034;2023-06-22T01:01:43;4.5;;;2.8;;
77953;SDS011;67151;52.544;6.034;2023-06-22T01:01:58;4.3;;;2.7;;
77953;SDS011;67151;52.544;6.034;2023-06-22T01:02:13;4.2;;;2.9;;
77953;SDS011;67151;52.544;6.034;2023-06-22T01:02:28;4.9;;;3.1;;
77953;SDS011;67151;52.544;6.034;2023-06-22T01:02:43;4.6;;;2.9;;
77953;SDS011;67151;52.544;6.034;2023-06-22T01:02:58;4.5;;;3;;
77953;SDS011;67151;52.544;6.034;2023-06-22T01:03:13;4.6;;;3;;
77953;SDS011;67151;52.544;6.034;2023-06-22T01:03:28;4.7;;;2.7;;
77953;SDS011;67151;52.544;6.034;2023-06-22T01:03:43;5;;;2.8;;
77953;SDS011;67151;52.544;6.034;2023-06-22T01:03:58;5.9;;;3;;
77953;SDS011;67151;52.544;6.034;2023-06-22T01:04:13;5.9;;;3.1;;
77953;SDS011;67151;52.544;6.034;2023-06-22T01:04:34;5.4;;;3.1;;
77953;SDS011;67151;52.544;6.034;2023-06-22T01:04:43;5.5;;;2.9;;
77953;SDS011;67151;52.544;6.034;2023-06-22T01:04:58;4.4;;;2.6;;
77953;SDS011;67151;52.544;6.034;2023-06-22T01:05:13;4.7;;;2.5;;
77953;SDS011;67151;52.544;6.034;2023-06-22T01:05:28;5.1;;;2.6;;
77953;SDS011;67151;52.544;6.034;2023-06-22T01:05:43;4.7;;;2.5;;
77953;SDS011;67151;52.544;6.034;2023-06-22T01:05:59;4.2;;;2.4;;
77953;SDS011;67151;52.544;6.034;2023-06-22T01:06:14;4.2;;;2.6;;
77953;SDS011;67151;52.544;6.034;2023-06-22T01:06:29;4.4;;;2.8;;
77953;SDS011;67151;52.544;6.034;2023-06-22T01:06:44;4.4;;;2.7;;
77953;SDS011;67151;52.544;6.034;2023-06-22T01:06:59;5;;;2.7;;
77953;SDS011;67151;52.544;6.034;2023-06-22T01:07:14;5.4;;;2.8;;
77953;SDS011;67151;52.544;6.034;2023-06-22T01:07:31;5.2;;;2.8;;
77953;SDS011;67151;52.544;6.034;2023-06-22T01:07:44;4.7;;;2.8;;
77953;SDS011;67151;52.544;6.034;2023-06-22T01:08:00;5.3;;;2.7;;
77953;SDS011;67151;52.544;6.034;2023-06-22T01:08:16;6.3;;;2.8;;
77953;SDS011;67151;52.544;6.034;2023-06-22T01:08:29;6;;;3;;
77953;SDS011;67151;52.544;6.034;2023-06-22T01:08:44;5.2;;;3;;
77953;SDS011;67151;52.544;6.034;2023-06-22T01:09:00;4.8;;;2.8;;
77953;SDS011;67151;52.544;6.034;2023-06-22T01:09:14;4.8;;;2.9;;
77953;SDS011;67151;52.544;6.034;2023-06-22T01:09:29;4.5;;;3;;
77953;SDS011;67151;52.544;6.034;2023-06-22T01:09:44;5.5;;;2.9;;
77953;SDS011;67151;52.544;6.034;2023-06-22T01:09:59;6.2;;;2.9;;
77953;SDS011;67151;52.544;6.034;2023-06-22T01:10:14;5.3;;;2.8;;
77953;SDS011;67151;52.544;6.034;2023-06-22T01:10:29;5.4;;;2.8;;
77953;SDS011;67151;52.544;6.034;2023-06-22T01:10:44;5.1;;;2.9;;
77953;SDS011;67151;52.544;6.034;2023-06-22T01:11:00;4.9;;;2.9;;
77953;SDS011;67151;52.544;6.034;2023-06-22T01:11:16;4.9;;;2.9;;
77953;SDS011;67151;52.544;6.034;2023-06-22T01:11:30;5;;;2.6;;
77953;SDS011;67151;52.544;6.034;2023-06-22T01:11:45;4.7;;;2.5;;
77953;SDS011;67151;52.544;6.034;2023-06-22T01:12:00;4.7;;;2.7;;
77953;SDS011;67151;52.544;6.034;2023-06-22T01:12:13;5.3;;;2.9;;
77953;SDS011;67151;52.544;6.034;2023-06-22T01:12:29;5.1;;;2.8;;
77953;SDS011;67151;52.544;6.034;2023-06-22T01:12:44;4.8;;;2.8;;
77953;SDS011;67151;52.544;6.034;2023-06-22T01:12:58;4.9;;;2.8;;
77953;SDS011;67151;52.544;6.034;2023-06-22T01:13:16;5.3;;;2.8;;
77953;SDS011;67151;52.544;6.034;2023-06-22T01:13:29;5;;;2.8;;
77953;SDS011;67151;52.544;6.034;2023-06-22T01:13:45;4.8;;;2.9;;
77953;SDS011;67151;52.544;6.034;2023-06-22T01:14:00;5.2;;;2.9;;
77953;SDS011;67151;52.544;6.034;2023-06-22T01:14:14;5.3;;;2.8;;
77953;SDS011;67151;52.544;6.034;2023-06-22T01:14:30;5;;;3;;
77953;SDS011;67151;52.544;6.034;2023-06-22T01:14:43;4.2;;;3;;
77953;SDS011;67151;52.544;6.034;2023-06-22T01:15:00;4;;;2.8;;
77953;SDS011;67151;52.544;6.034;2023-06-22T01:15:14;4.8;;;2.9;;
77953;SDS011;67151;52.544;6.034;2023-06-22T01:15:29;4.7;;;2.8;;
77953;SDS011;67151;52.544;6.034;2023-06-22T01:15:44;4.6;;;2.8;;
77953;SDS011;67151;52.544;6.034;2023-06-22T01:16:00;5.3;;;3.2;;
77953;SDS011;67151;52.544;6.034;2023-06-22T01:16:14;4.7;;;3.2;;
77953;SDS011;67151;52.544;6.034;2023-06-22T01:16:29;4.4;;;2.8;;
77953;SDS011;67151;52.544;6.034;2023-06-22T01:16:44;4.4;;;2.9;;
77953;SDS011;67151;52.544;6.034;2023-06-22T01:16:58;4.9;;;3;;
77953;SDS011;67151;52.544;6.034;2023-06-22T01:17:13;5.5;;;2.7;;
77953;SDS011;67151;52.544;6.034;2023-06-22T01:17:28;5.3;;;2.8;;
77953;SDS011;67151;52.544;6.034;2023-06-22T01:17:43;5.6;;;3.1;;
77953;SDS011;67151;52.544;6.034;2023-06-22T01:17:58;4.8;;;3;;
77953;SDS011;67151;52.544;6.034;2023-06-22T01:18:13;3.9;;;2.8;;
77953;SDS011;67151;52.544;6.034;2023-06-22T01:18:28;3.6;;;2.7;;
77953;SDS011;67151;52.544;6.034;2023-06-22T01:18:43;4.6;;;2.8;;
77953;SDS011;67151;52.544;6.034;2023-06-22T01:19:00;4.9;;;2.8;;
77953;SDS011;67151;52.544;6.034;2023-06-22T01:19:17;4.4;;;2.7;;
77953;SDS011;67151;52.544;6.034;2023-06-22T01:19:32;4.8;;;2.9;;
77953;SDS011;67151;52.544;6.034;2023-06-22T01:19:43;4.8;;;3;;
77953;SDS011;67151;52.544;6.034;2023-06-22T01:19:58;4.8;;;3;;
77953;SDS011;67151;52.544;6.034;2023-06-22T01:20:13;4.1;;;2.9;;
77953;SDS011;67151;52.544;6.034;2023-06-22T01:20:28;3.9;;;2.9;;
77953;SDS011;67151;52.544;6.034;2023-06-22T01:20:43;4.3;;;2.8;;
77953;SDS011;67151;52.544;6.034;2023-06-22T01:20:58;4.5;;;2.7;;
77953;SDS011;67151;52.544;6.034;2023-06-22T01:21:14;6.5;;;3;;
77953;SDS011;67151;52.544;6.034;2023-06-22T01:21:28;7.1;;;3.1;;
77953;SDS011;67151;52.544;6.034;2023-06-22T01:21:43;5.3;;;3;;
77953;SDS011;67151;52.544;6.034;2023-06-22T01:21:58;5.2;;;3.1;;
77953;SDS011;67151;52.544;6.034;2023-06-22T01:22:14;5.5;;;3.3;;
77953;SDS011;67151;52.544;6.034;2023-06-22T01:22:30;5.6;;;3.1;;
77953;SDS011;67151;52.544;6.034;2023-06-22T01:22:46;5.2;;;3.1;;
77953;SDS011;67151;52.544;6.034;2023-06-22T01:23:02;5.2;;;3.1;;
77953;SDS011;67151;52.544;6.034;2023-06-22T01:23:17;5.9;;;3;;
77953;SDS011;67151;52.544;6.034;2023-06-22T01:23:29;5.9;;;3.1;;
77953;SDS011;67151;52.544;6.034;2023-06-22T01:23:50;5.9;;;3.1;;
77953;SDS011;67151;52.544;6.034;2023-06-22T01:24:02;5.6;;;2.8;;
77953;SDS011;67151;52.544;6.034;2023-06-22T01:24:15;4.6;;;2.8;;
77953;SDS011;67151;52.544;6.034;2023-06-22T01:24:30;4.8;;;3;;
77953;SDS011;67151;52.544;6.034;2023-06-22T01:24:46;5.3;;;3;;
77953;SDS011;67151;52.544;6.034;2023-06-22T01:25:00;5.1;;;2.8;;
77953;SDS011;67151;52.544;6.034;2023-06-22T01:25:15;4.8;;;2.9;;
77953;SDS011;67151;52.544;6.034;2023-06-22T01:25:28;4.4;;;2.8;;
77953;SDS011;67151;52.544;6.034;2023-06-22T01:25:45;4.4;;;2.8;;
77953;SDS011;67151;52.544;6.034;2023-06-22T01:25:59;5.4;;;3.1;;
77953;SDS011;67151;52.544;6.034;2023-06-22T01:26:15;5.7;;;3.4;;
77953;SDS011;67151;52.544;6.034;2023-06-22T01:26:28;4.9;;;3.1;;
77953;SDS011;67151;52.544;6.034;2023-06-22T01:26:45;4.9;;;2.7;;
77953;SDS011;67151;52.544;6.034;2023-06-22T01:27:00;5.4;;;2.9;;
77953;SDS011;67151;52.544;6.034;2023-06-22T01:27:16;5.1;;;2.9;;
77953;SDS011;67151;52.544;6.034;2023-06-22T01:27:32;5.4;;;2.9;;
77953;SDS011;67151;52.544;6.034;2023-06-22T01:27:47;5.6;;;3.2;;
77953;SDS011;67151;52.544;6.034;2023-06-22T01:28:02;4.1;;;3;;
77953;SDS011;67151;52.544;6.034;2023-06-22T01:28:18;4.1;;;2.8;;
77953;SDS011;67151;52.544;6.034;2023-06-22T01:28:39;4.9;;;2.8;;
77953;SDS011;67151;52.544;6.034;2023-06-22T01:28:43;5.6;;;3.1;;
77953;SDS011;67151;52.544;6.034;2023-06-22T01:28:58;5.6;;;3.4;;
77953;SDS011;67151;52.544;6.034;2023-06-22T01:29:13;4.5;;;3.1;;
77953;SDS011;67151;52.544;6.034;2023-06-22T01:29:28;4.5;;;3.1;;
77953;SDS011;67151;52.544;6.034;2023-06-22T01:29:43;5.7;;;3.2;;
77953;SDS011;67151;52.544;6.034;2023-06-22T01:30:17;6;;;3.3;;
77953;SDS011;67151;52.544;6.034;2023-06-22T01:30:17;5.2;;;3.3;;
77953;SDS011;67151;52.544;6.034;2023-06-22T01:30:28;5;;;3.2;;
77953;SDS011;67151;52.544;6.034;2023-06-22T01:30:43;6.1;;;3.2;;
77953;SDS011;67151;52.544;6.034;2023-06-22T01:30:58;5.8;;;3.1;;
77953;SDS011;67151;52.544;6.034;2023-06-22T01:31:14;5.2;;;3.2;;
77953;SDS011;67151;52.544;6.034;2023-06-22T01:31:28;5.3;;;3;;
77953;SDS011;67151;52.544;6.034;2023-06-22T01:31:43;4.9;;;2.9;;
77953;SDS011;67151;52.544;6.034;2023-06-22T01:31:58;4.7;;;2.9;;
77953;SDS011;67151;52.544;6.034;2023-06-22T01:32:13;4.5;;;2.9;;
77953;SDS011;67151;52.544;6.034;2023-06-22T01:32:28;4.2;;;2.8;;
77953;SDS011;67151;52.544;6.034;2023-06-22T01:32:44;4.7;;;3;;
77953;SDS011;67151;52.544;6.034;2023-06-22T01:32:58;5.7;;;3.1;;
77953;SDS011;67151;52.544;6.034;2023-06-22T01:33:13;5.2;;;3.2;;
77953;SDS011;67151;52.544;6.034;2023-06-22T01:33:28;4.8;;;3.1;;
77953;SDS011;67151;52.544;6.034;2023-06-22T01:33:45;4.5;;;2.9;;
77953;SDS011;67151;52.544;6.034;2023-06-22T01:33:59;4.6;;;2.9;;